Cleardale, Canada
Current Conditions -  °F | °C
As of 2:00 PM on Friday 28 Nov 2014 (Local Time) from CYXJ Reporting Station
Scattered Clouds Scattered Clouds  
Wind Chill: -30°   Ceiling: Unl
Heat Index: -13°   Visibility: 10mi
Dew Point: -22°   Wind: 8mph
Humidity: 64%   Direction: 310°NW
Pressure: 30.07"   Gusts: NA
Location:  56.33°N, 119.58°W
Report Text: CYXJ 282100Z 31007KT 10SM FEW085 SCT220 M25/M30 A3007 RMK AC1CI2 SLP261
Loading
Personal Weather Stations






























Interactive Weather Map New forecast layout! Learn more

10-Day Weather Forecast

Advertisements
Track Severe Weather on mobile